createdAt,value
2017-11-29T00:00:37.825Z,0
2017-11-29T00:01:37.847Z,0
2017-11-29T00:02:37.894Z,0
2017-11-29T00:03:37.827Z,0
2017-11-29T00:04:37.835Z,0
2017-11-29T00:05:37.840Z,0
2017-11-29T00:06:37.897Z,0
2017-11-29T00:07:37.843Z,0
2017-11-29T00:08:37.901Z,0
2017-11-29T00:09:37.841Z,0
2017-11-29T00:10:37.899Z,0
2017-11-29T00:11:37.843Z,0
2017-11-29T00:12:37.902Z,0
2017-11-29T00:13:37.905Z,0
2017-11-29T00:14:37.921Z,0
2017-11-29T00:15:37.836Z,0
2017-11-29T00:16:37.834Z,0
2017-11-29T00:17:37.835Z,0
2017-11-29T00:18:37.855Z,0
2017-11-29T00:19:37.800Z,0
2017-11-29T00:20:37.754Z,0
2017-11-29T00:21:37.804Z,0
2017-11-29T00:22:37.752Z,0
2017-11-29T00:23:37.754Z,0
2017-11-29T00:24:37.757Z,0
2017-11-29T00:25:37.862Z,0
2017-11-29T00:26:37.779Z,0
2017-11-29T00:27:37.853Z,0
2017-11-29T00:28:37.891Z,0
2017-11-29T00:29:37.891Z,0
2017-11-29T00:30:37.863Z,0
2017-11-29T00:31:37.803Z,0
2017-11-29T00:32:37.799Z,0
2017-11-29T00:33:37.865Z,0
2017-11-29T00:34:37.875Z,0
2017-11-29T00:35:37.894Z,0
2017-11-29T00:36:37.869Z,0
2017-11-29T00:37:37.845Z,0
2017-11-29T00:38:37.902Z,0
2017-11-29T00:39:37.817Z,0
2017-11-29T00:40:37.911Z,0
2017-11-29T00:41:37.905Z,0
2017-11-29T00:42:37.818Z,0
2017-11-29T00:43:37.847Z,0
2017-11-29T00:44:37.939Z,0
2017-11-29T00:45:37.909Z,0
2017-11-29T00:46:37.907Z,0
2017-11-29T00:47:37.886Z,0
2017-11-29T00:48:37.812Z,0
2017-11-29T00:49:37.857Z,0
2017-11-29T00:50:37.907Z,0
2017-11-29T00:51:37.789Z,0
2017-11-29T00:52:37.856Z,0
2017-11-29T00:53:37.908Z,0
2017-11-29T00:54:37.875Z,0
2017-11-29T00:55:37.817Z,0
2017-11-29T00:56:37.814Z,0
2017-11-29T00:57:37.890Z,0
2017-11-29T00:58:37.879Z,0
2017-11-29T00:59:37.810Z,0
2017-11-29T01:00:37.792Z,0
2017-11-29T01:01:37.830Z,0
2017-11-29T01:02:37.915Z,0
2017-11-29T01:03:37.811Z,0
2017-11-29T01:04:37.890Z,0
2017-11-29T01:05:37.921Z,0
2017-11-29T01:06:37.883Z,0
2017-11-29T01:07:37.837Z,0
2017-11-29T01:08:37.837Z,0
2017-11-29T01:09:37.892Z,0
2017-11-29T01:10:37.818Z,0
2017-11-29T01:11:37.886Z,0
2017-11-29T01:12:37.866Z,0
2017-11-29T01:13:37.889Z,0
2017-11-29T01:14:37.906Z,0
2017-11-29T01:15:37.993Z,0
2017-11-29T01:16:37.812Z,0
2017-11-29T01:17:37.928Z,0
2017-11-29T01:18:37.922Z,0
2017-11-29T01:19:37.896Z,0
2017-11-29T01:20:37.828Z,0
2017-11-29T01:21:37.868Z,0
2017-11-29T01:22:37.911Z,0
2017-11-29T01:23:37.868Z,0
2017-11-29T01:24:37.835Z,0
2017-11-29T01:25:37.834Z,0
2017-11-29T01:26:37.880Z,0
2017-11-29T01:27:37.814Z,0
2017-11-29T01:28:37.934Z,0
2017-11-29T01:29:37.935Z,0
2017-11-29T01:30:37.934Z,0
2017-11-29T01:31:37.813Z,0
2017-11-29T01:32:37.933Z,0
2017-11-29T01:33:37.936Z,0
2017-11-29T01:34:37.907Z,0
2017-11-29T01:35:37.903Z,0
2017-11-29T01:36:37.835Z,0
2017-11-29T01:37:37.918Z,0
2017-11-29T01:38:37.952Z,0
2017-11-29T01:39:37.847Z,0
2017-11-29T01:40:37.887Z,0
2017-11-29T01:41:37.886Z,0
2017-11-29T01:42:37.923Z,0
2017-11-29T01:43:37.849Z,0
2017-11-29T01:44:37.957Z,0
2017-11-29T01:45:37.892Z,0
2017-11-29T01:46:37.957Z,0
2017-11-29T01:47:37.961Z,0
2017-11-29T01:48:37.891Z,0
2017-11-29T01:49:37.958Z,0
2017-11-29T01:50:37.900Z,0
2017-11-29T01:51:37.961Z,0
2017-11-29T01:52:37.896Z,0
2017-11-29T01:53:37.965Z,0
2017-11-29T01:54:37.897Z,0
2017-11-29T01:55:37.960Z,0
2017-11-29T01:56:37.894Z,0
2017-11-29T01:57:37.969Z,0
2017-11-29T01:58:37.822Z,0
2017-11-29T01:59:37.853Z,0
2017-11-29T02:00:37.897Z,0
2017-11-29T02:01:37.920Z,0
2017-11-29T02:02:37.905Z,0
2017-11-29T02:03:37.926Z,0
2017-11-29T02:04:37.898Z,0
2017-11-29T02:05:37.842Z,0
2017-11-29T02:06:37.895Z,0
2017-11-29T02:07:37.853Z,0
2017-11-29T02:08:37.870Z,0
2017-11-29T02:09:37.819Z,0
2017-11-29T02:10:37.924Z,0
2017-11-29T02:11:37.922Z,0
2017-11-29T02:12:37.872Z,0
2017-11-29T02:13:37.916Z,0
2017-11-29T02:14:37.824Z,0
2017-11-29T02:15:37.872Z,0
2017-11-29T02:16:37.878Z,0
2017-11-29T02:17:37.885Z,0
2017-11-29T02:18:37.976Z,0
2017-11-29T02:19:37.976Z,0
2017-11-29T02:20:37.911Z,0
2017-11-29T02:21:37.976Z,0
2017-11-29T02:22:37.912Z,0
2017-11-29T02:23:37.984Z,0
2017-11-29T02:24:37.912Z,0
2017-11-29T02:25:37.910Z,0
2017-11-29T02:26:37.917Z,0
2017-11-29T02:27:38.005Z,0
2017-11-29T02:28:37.803Z,0
2017-11-29T02:29:37.894Z,0
2017-11-29T02:30:37.892Z,0
2017-11-29T02:31:38.107Z,0
2017-11-29T02:32:37.960Z,0
2017-11-29T02:33:37.944Z,0
2017-11-29T02:34:37.816Z,0
2017-11-29T02:35:37.855Z,0
2017-11-29T02:36:37.809Z,0
2017-11-29T02:37:37.867Z,0
2017-11-29T02:38:37.929Z,0
2017-11-29T02:39:37.924Z,0
2017-11-29T02:40:37.989Z,0
2017-11-29T02:41:37.924Z,0
2017-11-29T02:42:38.001Z,0
2017-11-29T02:43:37.997Z,0
2017-11-29T02:44:37.924Z,0
2017-11-29T02:45:37.993Z,0
2017-11-29T02:46:37.994Z,0
2017-11-29T02:47:37.928Z,0
2017-11-29T02:48:37.877Z,0
2017-11-29T02:49:37.930Z,0
2017-11-29T02:50:37.998Z,0
2017-11-29T02:51:37.929Z,0
2017-11-29T02:52:37.997Z,0
2017-11-29T02:53:37.938Z,0
2017-11-29T02:54:38.017Z,0
2017-11-29T02:55:37.931Z,0
2017-11-29T02:56:37.999Z,0
2017-11-29T02:57:37.931Z,0
2017-11-29T02:58:37.935Z,0
2017-11-29T02:59:38.002Z,0
2017-11-29T03:00:37.934Z,0
2017-11-29T03:01:38.001Z,0
2017-11-29T03:02:37.933Z,0
2017-11-29T03:03:38.007Z,0
2017-11-29T03:04:37.943Z,0
2017-11-29T03:05:37.937Z,0
2017-11-29T03:06:37.940Z,0
2017-11-29T03:07:37.940Z,0
2017-11-29T03:08:37.914Z,0
2017-11-29T03:09:37.908Z,0
2017-11-29T03:10:37.915Z,0
2017-11-29T03:11:37.995Z,0
2017-11-29T03:12:37.909Z,0
2017-11-29T03:13:38.008Z,0
2017-11-29T03:14:37.912Z,0
2017-11-29T03:15:37.999Z,0
2017-11-29T03:16:38.003Z,0
2017-11-29T03:17:37.966Z,0
2017-11-29T03:18:37.994Z,0
2017-11-29T03:19:37.907Z,0
2017-11-29T03:20:37.972Z,0
2017-11-29T03:21:37.948Z,0
2017-11-29T03:22:37.912Z,0
2017-11-29T03:23:37.979Z,0
2017-11-29T03:24:37.913Z,0
2017-11-29T03:25:38.001Z,0
2017-11-29T03:26:37.973Z,0
2017-11-29T03:27:37.881Z,0
2017-11-29T03:28:37.951Z,0
2017-11-29T03:29:38.021Z,0
2017-11-29T03:30:37.956Z,0
2017-11-29T03:31:37.953Z,0
2017-11-29T03:32:37.955Z,0
2017-11-29T03:33:38.023Z,0
2017-11-29T03:34:37.956Z,0
2017-11-29T03:35:38.024Z,0
2017-11-29T03:36:37.957Z,0
2017-11-29T03:37:37.958Z,0
2017-11-29T03:38:37.846Z,0
2017-11-29T03:39:37.899Z,0
2017-11-29T03:40:37.846Z,0
2017-11-29T03:41:37.933Z,0
2017-11-29T03:42:37.851Z,0
2017-11-29T03:43:37.846Z,0
2017-11-29T03:44:37.856Z,0
2017-11-29T03:45:37.850Z,0
2017-11-29T03:46:37.901Z,0
2017-11-29T03:47:37.973Z,0
2017-11-29T03:48:37.985Z,0
2017-11-29T03:49:37.983Z,0
2017-11-29T03:50:38.028Z,0
2017-11-29T03:51:37.994Z,0
2017-11-29T03:52:37.988Z,0
2017-11-29T03:53:37.977Z,0
2017-11-29T03:54:37.940Z,0
2017-11-29T03:55:37.990Z,0
2017-11-29T03:56:37.943Z,0
2017-11-29T03:57:38.021Z,0
2017-11-29T03:58:37.970Z,0
2017-11-29T03:59:37.973Z,0
2017-11-29T04:00:37.971Z,0
2017-11-29T04:01:38.037Z,0
2017-11-29T04:02:37.974Z,0
2017-11-29T04:03:37.923Z,0
2017-11-29T04:04:37.977Z,0
2017-11-29T04:05:38.043Z,0
2017-11-29T04:06:37.977Z,0
2017-11-29T04:07:38.039Z,0
2017-11-29T04:08:37.982Z,0
2017-11-29T04:09:38.051Z,0
2017-11-29T04:10:37.975Z,0
2017-11-29T04:11:38.045Z,0
2017-11-29T04:12:38.008Z,0
2017-11-29T04:13:37.980Z,0
2017-11-29T04:14:38.050Z,0
2017-11-29T04:15:37.982Z,0
2017-11-29T04:16:38.050Z,0
2017-11-29T04:17:37.993Z,0
2017-11-29T04:18:38.056Z,0
2017-11-29T04:19:37.985Z,0
2017-11-29T04:20:38.093Z,0
2017-11-29T04:21:38.053Z,0
2017-11-29T04:22:37.986Z,0
2017-11-29T04:23:38.056Z,0
2017-11-29T04:24:37.984Z,0
2017-11-29T04:25:38.006Z,0
2017-11-29T04:26:37.987Z,0
2017-11-29T04:27:38.056Z,0
2017-11-29T04:28:37.988Z,0
2017-11-29T04:29:38.082Z,0
2017-11-29T04:30:38.055Z,0
2017-11-29T04:31:37.991Z,0
2017-11-29T04:32:38.063Z,0
2017-11-29T04:33:38.023Z,0
2017-11-29T04:34:37.993Z,0
2017-11-29T04:35:38.066Z,0
2017-11-29T04:36:38.067Z,0
2017-11-29T04:37:37.995Z,0
2017-11-29T04:38:38.062Z,0
2017-11-29T04:39:37.996Z,0
2017-11-29T04:40:38.063Z,0
2017-11-29T04:41:37.995Z,0
2017-11-29T04:42:37.998Z,0
2017-11-29T04:43:38.064Z,0
2017-11-29T04:44:37.997Z,0
2017-11-29T04:45:38.068Z,0
2017-11-29T04:46:38.000Z,0
2017-11-29T04:47:38.064Z,0
2017-11-29T04:48:38.010Z,0
2017-11-29T04:49:38.072Z,0
2017-11-29T04:50:38.078Z,0
2017-11-29T04:51:38.003Z,0
2017-11-29T04:52:38.009Z,0
2017-11-29T04:53:38.070Z,0
2017-11-29T04:54:38.071Z,0
2017-11-29T04:55:38.005Z,0
2017-11-29T04:56:38.005Z,0
2017-11-29T04:57:38.076Z,0
2017-11-29T04:58:37.940Z,0
2017-11-29T04:59:37.947Z,0
2017-11-29T05:00:38.015Z,0
2017-11-29T05:01:37.938Z,0
2017-11-29T05:02:37.980Z,0
2017-11-29T05:03:38.006Z,0
2017-11-29T05:04:38.014Z,0
2017-11-29T05:05:37.955Z,0
2017-11-29T05:06:37.954Z,0
2017-11-29T05:07:37.990Z,0
2017-11-29T05:08:37.981Z,0
2017-11-29T05:09:38.035Z,0
2017-11-29T05:10:38.002Z,0
2017-11-29T05:11:37.948Z,0
2017-11-29T05:12:37.984Z,0
2017-11-29T05:13:38.079Z,0
2017-11-29T05:14:38.076Z,0
2017-11-29T05:15:38.067Z,0
2017-11-29T05:16:37.969Z,0
2017-11-29T05:17:37.993Z,0
2017-11-29T05:19:38.021Z,0
2017-11-29T05:20:37.908Z,0
2017-11-29T05:21:37.901Z,0
2017-11-29T05:22:38.020Z,0
2017-11-29T05:23:38.026Z,0
2017-11-29T05:24:37.969Z,0
2017-11-29T05:25:37.908Z,0
2017-11-29T05:26:37.909Z,0
2017-11-29T05:27:38.020Z,0
2017-11-29T05:28:37.914Z,0
2017-11-29T05:29:38.077Z,0
2017-11-29T05:30:38.029Z,0
2017-11-29T05:31:38.055Z,0
2017-11-29T05:32:38.048Z,0
2017-11-29T05:33:38.086Z,0
2017-11-29T05:34:37.988Z,0
2017-11-29T05:35:37.963Z,0
2017-11-29T05:36:37.998Z,0
2017-11-29T05:37:38.050Z,0
2017-11-29T05:38:37.988Z,0
2017-11-29T05:39:38.084Z,0
2017-11-29T05:40:38.090Z,0
2017-11-29T05:41:38.040Z,0
2017-11-29T05:42:38.079Z,0
2017-11-29T05:43:38.034Z,0
2017-11-29T05:44:37.958Z,0
2017-11-29T05:45:37.966Z,0
2017-11-29T05:46:37.993Z,0
2017-11-29T05:47:37.993Z,0
2017-11-29T05:48:37.966Z,0
2017-11-29T05:49:37.990Z,0
2017-11-29T05:50:38.039Z,0
2017-11-29T05:51:38.103Z,0
2017-11-29T05:52:38.039Z,0
2017-11-29T05:53:38.107Z,0
2017-11-29T05:54:38.109Z,0
2017-11-29T05:55:38.039Z,0
2017-11-29T05:56:38.042Z,0
2017-11-29T05:57:38.107Z,0
2017-11-29T05:58:38.041Z,0
2017-11-29T05:59:38.096Z,0
2017-11-29T06:00:38.016Z,0
2017-11-29T06:01:38.042Z,0
2017-11-29T06:02:38.048Z,0
2017-11-29T06:03:38.105Z,0
2017-11-29T06:04:38.016Z,0
2017-11-29T06:05:38.102Z,0
2017-11-29T06:06:38.071Z,0
2017-11-29T06:07:38.019Z,0
2017-11-29T06:08:38.107Z,0
2017-11-29T06:09:38.050Z,0
2017-11-29T06:10:38.116Z,0
2017-11-29T06:11:38.050Z,0
2017-11-29T06:12:38.117Z,0
2017-11-29T06:13:38.049Z,0
2017-11-29T06:14:38.133Z,0
2017-11-29T06:15:38.148Z,0
2017-11-29T06:16:38.077Z,0
2017-11-29T06:17:38.068Z,0
2017-11-29T06:18:38.131Z,0
2017-11-29T06:19:38.121Z,0
2017-11-29T06:20:38.069Z,0
2017-11-29T06:21:38.054Z,0
2017-11-29T06:22:38.061Z,0
2017-11-29T06:23:38.124Z,0
2017-11-29T06:24:38.076Z,4
2017-11-29T06:25:38.128Z,4
2017-11-29T06:26:38.062Z,4
2017-11-29T06:27:38.129Z,4
2017-11-29T06:28:38.058Z,0
2017-11-29T06:29:38.062Z,4
2017-11-29T06:30:38.125Z,4
2017-11-29T06:31:38.083Z,4
2017-11-29T06:32:38.135Z,8
2017-11-29T06:33:38.061Z,8
2017-11-29T06:34:38.133Z,4
2017-11-29T06:35:38.069Z,8
2017-11-29T06:36:38.131Z,12
2017-11-29T06:37:38.139Z,8
2017-11-29T06:38:38.070Z,12
2017-11-29T06:39:38.132Z,12
2017-11-29T06:40:38.134Z,12
2017-11-29T06:41:38.072Z,16
2017-11-29T06:42:38.068Z,20
2017-11-29T06:43:38.137Z,24
2017-11-29T06:44:38.070Z,28
2017-11-29T06:45:38.137Z,32
2017-11-29T06:46:38.067Z,36
2017-11-29T06:47:38.067Z,40
2017-11-29T06:48:38.150Z,48
2017-11-29T06:49:38.069Z,52
2017-11-29T06:50:38.071Z,56
2017-11-29T06:51:38.140Z,68
2017-11-29T06:52:38.096Z,76
2017-11-29T06:53:38.140Z,84
2017-11-29T06:54:38.077Z,92
2017-11-29T06:55:38.146Z,104
2017-11-29T06:56:38.088Z,116
2017-11-29T06:57:38.145Z,132
2017-11-29T06:58:38.077Z,148
2017-11-29T06:59:38.011Z,168
2017-11-29T07:00:38.105Z,184
2017-11-29T07:01:38.023Z,196
2017-11-29T07:02:38.078Z,204
2017-11-29T07:03:38.076Z,208
2017-11-29T07:04:38.043Z,216
2017-11-29T07:05:38.011Z,224
2017-11-29T07:06:38.141Z,228
2017-11-29T07:07:38.010Z,236
2017-11-29T07:08:38.142Z,244
2017-11-29T07:09:38.086Z,252
2017-11-29T07:10:37.971Z,260
2017-11-29T07:11:38.056Z,264
2017-11-29T07:12:38.023Z,268
2017-11-29T07:13:38.023Z,280
2017-11-29T07:14:38.080Z,284
2017-11-29T07:15:37.978Z,296
2017-11-29T07:16:38.015Z,308
2017-11-29T07:17:38.087Z,324
2017-11-29T07:18:37.981Z,344
2017-11-29T07:19:38.145Z,368
2017-11-29T07:20:38.153Z,396
2017-11-29T07:21:38.152Z,424
2017-11-29T07:22:38.149Z,444
2017-11-29T07:23:38.149Z,460
2017-11-29T07:24:38.085Z,484
2017-11-29T07:25:38.102Z,504
2017-11-29T07:26:38.106Z,520
2017-11-29T07:27:38.150Z,524
2017-11-29T07:28:38.125Z,528
2017-11-29T07:29:38.110Z,528
2017-11-29T07:30:38.151Z,532
2017-11-29T07:31:38.034Z,552
2017-11-29T07:32:38.120Z,580
2017-11-29T07:33:38.122Z,600
2017-11-29T07:34:38.038Z,612
2017-11-29T07:35:38.154Z,640
2017-11-29T07:36:38.039Z,688
2017-11-29T07:37:38.169Z,768
2017-11-29T07:38:38.157Z,852
2017-11-29T07:39:38.168Z,940
2017-11-29T07:40:38.105Z,1028
2017-11-29T07:41:38.185Z,1124
2017-11-29T07:42:38.161Z,1200
2017-11-29T07:43:38.107Z,1276
2017-11-29T07:44:38.175Z,1328
2017-11-29T07:45:38.105Z,1392
2017-11-29T07:46:38.106Z,1448
2017-11-29T07:47:38.109Z,1496
2017-11-29T07:48:38.133Z,1564
2017-11-29T07:49:38.113Z,1620
2017-11-29T07:50:38.186Z,1676
2017-11-29T07:51:38.181Z,1684
2017-11-29T07:52:38.115Z,1652
2017-11-29T07:53:38.180Z,1644
2017-11-29T07:54:38.117Z,1692
2017-11-29T07:55:38.116Z,1804
2017-11-29T07:56:38.063Z,1968
2017-11-29T07:57:38.120Z,2172
2017-11-29T07:58:38.181Z,2448
2017-11-29T07:59:38.118Z,2664
2017-11-29T08:00:38.182Z,2980
2017-11-29T08:01:38.117Z,3332
2017-11-29T08:02:38.197Z,3704
2017-11-29T08:03:38.121Z,4048
2017-11-29T08:04:38.189Z,4360
2017-11-29T08:05:38.136Z,4672
2017-11-29T08:06:38.184Z,4792
2017-11-29T08:07:38.121Z,4916
2017-11-29T08:08:38.121Z,5096
2017-11-29T08:09:38.131Z,5332
2017-11-29T08:10:38.081Z,5568
2017-11-29T08:11:38.085Z,5724
2017-11-29T08:12:38.134Z,5724
2017-11-29T08:13:38.044Z,5720
2017-11-29T08:14:38.140Z,5836
2017-11-29T08:15:38.137Z,5916
2017-11-29T08:16:38.085Z,5924
2017-11-29T08:17:38.044Z,5892
2017-11-29T08:18:38.141Z,5716
2017-11-29T08:19:38.072Z,5324
2017-11-29T08:20:38.145Z,4900
2017-11-29T08:21:38.176Z,4288
2017-11-29T08:22:38.185Z,3652
2017-11-29T08:23:38.197Z,3300
2017-11-29T08:24:38.164Z,3080
2017-11-29T08:25:38.178Z,2956
2017-11-29T08:26:38.189Z,2952
2017-11-29T08:27:38.083Z,3128
2017-11-29T08:28:38.064Z,3236
2017-11-29T08:29:38.134Z,3204
2017-11-29T08:30:38.229Z,3584
2017-11-29T08:31:38.136Z,4168
2017-11-29T08:32:38.139Z,4728
2017-11-29T08:33:38.134Z,4780
2017-11-29T08:34:38.149Z,4384
2017-11-29T08:35:38.139Z,4356
2017-11-29T08:36:38.204Z,4668
2017-11-29T08:37:38.136Z,5004
2017-11-29T08:38:38.224Z,4872
2017-11-29T08:39:38.137Z,4480
2017-11-29T08:40:38.207Z,4336
2017-11-29T08:41:38.198Z,4340
2017-11-29T08:42:38.143Z,4448
2017-11-29T08:43:38.209Z,4700
2017-11-29T08:44:38.140Z,5008
2017-11-29T08:45:38.245Z,5372
2017-11-29T08:46:38.210Z,5596
2017-11-29T08:47:38.210Z,5880
2017-11-29T08:48:38.150Z,6132
2017-11-29T08:49:38.142Z,6308
2017-11-29T08:50:38.181Z,6480
2017-11-29T08:51:38.201Z,6628
2017-11-29T08:52:38.169Z,6908
2017-11-29T08:53:38.076Z,7144
2017-11-29T08:54:38.125Z,7324
2017-11-29T08:55:38.114Z,7564
2017-11-29T08:56:38.212Z,7900
2017-11-29T08:57:38.117Z,8176
2017-11-29T08:58:38.083Z,8368
2017-11-29T08:59:38.155Z,8436
2017-11-29T09:00:38.156Z,8512
2017-11-29T09:01:38.220Z,8696
2017-11-29T09:02:38.153Z,9184
2017-11-29T09:03:38.218Z,9456
2017-11-29T09:04:38.154Z,9688
2017-11-29T09:05:38.251Z,10024
2017-11-29T09:06:38.177Z,9892
2017-11-29T09:07:38.225Z,10024
2017-11-29T09:08:38.153Z,9892
2017-11-29T09:09:38.257Z,9540
2017-11-29T09:10:38.223Z,9236
2017-11-29T09:11:38.176Z,9036
2017-11-29T09:12:38.228Z,9112
2017-11-29T09:13:38.158Z,9280
2017-11-29T09:14:38.224Z,9312
2017-11-29T09:15:38.196Z,9404
2017-11-29T09:16:38.235Z,9408
2017-11-29T09:17:38.161Z,9280
2017-11-29T09:18:38.229Z,9032
2017-11-29T09:19:38.227Z,8852
2017-11-29T09:20:38.163Z,8848
2017-11-29T09:21:38.122Z,8992
2017-11-29T09:22:38.207Z,8988
2017-11-29T09:23:38.230Z,8940
2017-11-29T09:24:38.167Z,8740
2017-11-29T09:25:38.160Z,8616
2017-11-29T09:26:38.232Z,8856
2017-11-29T09:27:38.164Z,9984
2017-11-29T09:28:38.331Z,12176
2017-11-29T09:29:38.181Z,14628
2017-11-29T09:30:38.170Z,16204
2017-11-29T09:31:38.237Z,16408
2017-11-29T09:32:38.169Z,15432
2017-11-29T09:33:38.236Z,13612
2017-11-29T09:34:38.165Z,11696
2017-11-29T09:35:38.243Z,9944
2017-11-29T09:36:38.280Z,9068
2017-11-29T09:37:38.170Z,8984
2017-11-29T09:38:38.244Z,9680
2017-11-29T09:39:38.119Z,11032
2017-11-29T09:40:38.191Z,12628
2017-11-29T09:41:38.235Z,13892
2017-11-29T09:42:38.200Z,14264
2017-11-29T09:43:38.236Z,13936
2017-11-29T09:44:38.237Z,13612
2017-11-29T09:45:38.212Z,13248
2017-11-29T09:46:38.238Z,12976
2017-11-29T09:47:38.152Z,12848
2017-11-29T09:48:38.191Z,13100
2017-11-29T09:49:38.236Z,13860
2017-11-29T09:50:38.152Z,16352
2017-11-29T09:51:38.118Z,18332
2017-11-29T09:52:38.252Z,19864
2017-11-29T09:53:38.130Z,21984
2017-11-29T09:54:38.149Z,23040
2017-11-29T09:55:38.234Z,22880
2017-11-29T09:56:38.220Z,22976
2017-11-29T09:57:38.136Z,22496
2017-11-29T09:58:38.189Z,22240
2017-11-29T09:59:38.159Z,20800
2017-11-29T10:00:38.152Z,20216
2017-11-29T10:01:38.161Z,18344
2017-11-29T10:02:38.241Z,17456
2017-11-29T10:03:38.225Z,18036
2017-11-29T10:04:38.255Z,18348
2017-11-29T10:05:38.188Z,19788
2017-11-29T10:06:38.206Z,19888
2017-11-29T10:07:38.256Z,19588
2017-11-29T10:08:38.161Z,18808
2017-11-29T10:09:38.144Z,16908
2017-11-29T10:10:38.162Z,15368
2017-11-29T10:11:38.257Z,12748
2017-11-29T10:12:38.229Z,10972
2017-11-29T10:13:38.213Z,9860
2017-11-29T10:14:38.145Z,9100
2017-11-29T10:15:38.212Z,8840
2017-11-29T10:16:38.260Z,9100
2017-11-29T10:17:38.216Z,9792
2017-11-29T10:18:38.255Z,10992
2017-11-29T10:19:38.149Z,12380
2017-11-29T10:20:38.220Z,14164
2017-11-29T10:21:38.145Z,15344
2017-11-29T10:22:38.219Z,14972
2017-11-29T10:23:38.218Z,14276
2017-11-29T10:24:38.257Z,14132
2017-11-29T10:25:38.135Z,14176
2017-11-29T10:26:38.218Z,14920
2017-11-29T10:27:38.260Z,14272
2017-11-29T10:28:38.274Z,13360
2017-11-29T10:29:38.197Z,12776
2017-11-29T10:30:38.271Z,12272
2017-11-29T10:31:38.274Z,11484
2017-11-29T10:32:38.205Z,10776
2017-11-29T10:33:38.275Z,10564
2017-11-29T10:34:38.213Z,10656
2017-11-29T10:35:38.273Z,10580
2017-11-29T10:36:38.206Z,10520
2017-11-29T10:37:38.274Z,11000
2017-11-29T10:38:38.207Z,11936
2017-11-29T10:39:38.278Z,13092
2017-11-29T10:40:38.213Z,14316
2017-11-29T10:41:38.278Z,15760
2017-11-29T10:42:38.209Z,17220
2017-11-29T10:43:38.212Z,17996
2017-11-29T10:44:38.282Z,17792
2017-11-29T10:45:38.214Z,17868
2017-11-29T10:46:38.283Z,17636
2017-11-29T10:47:38.212Z,17152
2017-11-29T10:48:38.283Z,16668
2017-11-29T10:49:38.211Z,16140
2017-11-29T10:50:38.271Z,15620
2017-11-29T10:51:38.165Z,15116
2017-11-29T10:52:38.246Z,14472
2017-11-29T10:53:38.251Z,13772
2017-11-29T10:54:38.191Z,13160
2017-11-29T10:55:38.284Z,12800
2017-11-29T10:56:38.277Z,12760
2017-11-29T10:57:38.256Z,13112
2017-11-29T10:58:38.221Z,13472
2017-11-29T10:59:38.234Z,13684
2017-11-29T11:00:38.222Z,13508
2017-11-29T11:01:38.239Z,13308
2017-11-29T11:02:38.223Z,13148
2017-11-29T11:03:38.293Z,12648
2017-11-29T11:04:38.292Z,12236
2017-11-29T11:05:38.298Z,11872
2017-11-29T11:06:38.223Z,11684
2017-11-29T11:07:38.225Z,11628
2017-11-29T11:08:38.300Z,11180
2017-11-29T11:09:38.228Z,10840
2017-11-29T11:10:38.142Z,10524
2017-11-29T11:11:38.241Z,10080
2017-11-29T11:12:38.193Z,9612
2017-11-29T11:13:38.244Z,9220
2017-11-29T11:14:38.244Z,9152
2017-11-29T11:15:38.241Z,9472
2017-11-29T11:16:38.197Z,10036
2017-11-29T11:17:38.249Z,10732
2017-11-29T11:18:38.149Z,11364
2017-11-29T11:19:38.294Z,11904
2017-11-29T11:20:38.234Z,12204
2017-11-29T11:21:38.303Z,12608
2017-11-29T11:22:38.237Z,13020
2017-11-29T11:23:38.304Z,13588
2017-11-29T11:24:38.303Z,14056
2017-11-29T11:25:38.238Z,14368
2017-11-29T11:26:38.303Z,14616
2017-11-29T11:27:38.244Z,14760
2017-11-29T11:28:38.306Z,15100
2017-11-29T11:29:38.237Z,15484
2017-11-29T11:30:38.165Z,15744
2017-11-29T11:31:38.221Z,15884
2017-11-29T11:32:38.233Z,15900
2017-11-29T11:33:38.289Z,16020
2017-11-29T11:34:38.201Z,16160
2017-11-29T11:35:38.201Z,16424
2017-11-29T11:36:38.270Z,16828
2017-11-29T11:37:38.236Z,17264
2017-11-29T11:38:38.224Z,17640
2017-11-29T11:39:38.177Z,17884
2017-11-29T11:40:38.204Z,18068
2017-11-29T11:41:38.294Z,18432
2017-11-29T11:42:38.298Z,18908
2017-11-29T11:43:38.244Z,19404
2017-11-29T11:44:38.226Z,19732
2017-11-29T11:45:38.278Z,20000
2017-11-29T11:46:38.280Z,20216
2017-11-29T11:47:38.179Z,20424
2017-11-29T11:48:38.257Z,20828
2017-11-29T11:49:38.270Z,21376
2017-11-29T11:50:38.297Z,21600
2017-11-29T11:51:38.232Z,21568
2017-11-29T11:52:38.301Z,21280
2017-11-29T11:53:38.288Z,20544
2017-11-29T11:54:38.270Z,19280
2017-11-29T11:55:38.212Z,17648
2017-11-29T11:56:38.188Z,16392
2017-11-29T11:57:38.251Z,15732
2017-11-29T11:58:38.255Z,15720
2017-11-29T11:59:38.306Z,16088
2017-11-29T12:00:38.342Z,16764
2017-11-29T12:01:38.257Z,17596
2017-11-29T12:02:38.330Z,18580
2017-11-29T12:03:38.261Z,19684
2017-11-29T12:04:38.330Z,21632
2017-11-29T12:05:38.257Z,21568
2017-11-29T12:06:38.265Z,22304
2017-11-29T12:07:38.342Z,22816
2017-11-29T12:08:38.260Z,22752
2017-11-29T12:09:38.338Z,22528
2017-11-29T12:10:38.334Z,22464
2017-11-29T12:11:38.261Z,22784
2017-11-29T12:12:38.346Z,23200
2017-11-29T12:13:38.258Z,23200
2017-11-29T12:14:38.334Z,22144
2017-11-29T12:15:38.266Z,19684
2017-11-29T12:16:38.338Z,16768
2017-11-29T12:17:38.269Z,14212
2017-11-29T12:18:38.336Z,12124
2017-11-29T12:19:38.266Z,10812
2017-11-29T12:20:38.211Z,10020
2017-11-29T12:21:38.288Z,9716
2017-11-29T12:22:38.253Z,9876
2017-11-29T12:23:38.231Z,10432
2017-11-29T12:24:38.298Z,11152
2017-11-29T12:25:38.246Z,11728
2017-11-29T12:26:38.319Z,12100
2017-11-29T12:27:38.198Z,12200
2017-11-29T12:28:38.201Z,11964
2017-11-29T12:29:38.305Z,11388
2017-11-29T12:30:38.342Z,10612
2017-11-29T12:31:38.272Z,9612
2017-11-29T12:32:38.344Z,8464
2017-11-29T12:33:38.283Z,7516
2017-11-29T12:34:38.346Z,7088
2017-11-29T12:35:38.347Z,7208
2017-11-29T12:36:38.348Z,7780
2017-11-29T12:37:38.281Z,8764
2017-11-29T12:38:38.350Z,10372
2017-11-29T12:39:38.285Z,13100
2017-11-29T12:40:38.283Z,16380
2017-11-29T12:41:38.298Z,18928
2017-11-29T12:42:38.353Z,20256
2017-11-29T12:43:38.229Z,19948
2017-11-29T12:44:38.229Z,18516
2017-11-29T12:45:38.282Z,17036
2017-11-29T12:46:38.257Z,15588
2017-11-29T12:47:38.323Z,13904
2017-11-29T12:48:38.303Z,12076
2017-11-29T12:49:38.237Z,10088
2017-11-29T12:50:38.284Z,8256
2017-11-29T12:51:38.362Z,6624
2017-11-29T12:52:38.287Z,5448
2017-11-29T12:53:38.357Z,4696
2017-11-29T12:54:38.291Z,4248
2017-11-29T12:55:38.283Z,4004
2017-11-29T12:56:38.374Z,3884
2017-11-29T12:57:38.291Z,3864
2017-11-29T12:58:38.362Z,3944
2017-11-29T12:59:38.364Z,4120
2017-11-29T13:00:38.360Z,4380
2017-11-29T13:01:38.327Z,4632
2017-11-29T13:02:38.315Z,4824
2017-11-29T13:03:38.364Z,4948
2017-11-29T13:04:38.297Z,4956
2017-11-29T13:05:38.371Z,4936
2017-11-29T13:06:38.292Z,4928
2017-11-29T13:07:38.368Z,4968
2017-11-29T13:08:38.301Z,5044
2017-11-29T13:09:38.254Z,5112
2017-11-29T13:10:38.273Z,5088
2017-11-29T13:11:38.317Z,4976
2017-11-29T13:12:38.321Z,4836
2017-11-29T13:13:38.254Z,4608
2017-11-29T13:14:38.303Z,4352
2017-11-29T13:15:38.282Z,4072
2017-11-29T13:16:38.307Z,3844
2017-11-29T13:17:38.374Z,3624
2017-11-29T13:18:38.320Z,3416
2017-11-29T13:19:38.362Z,3236
2017-11-29T13:20:38.312Z,3156
2017-11-29T13:21:38.374Z,3164
2017-11-29T13:22:38.307Z,3172
2017-11-29T13:23:38.375Z,3184
2017-11-29T13:24:38.308Z,3204
2017-11-29T13:25:38.373Z,3336
2017-11-29T13:26:38.378Z,3680
2017-11-29T13:27:38.312Z,4128
2017-11-29T13:28:38.377Z,4640
2017-11-29T13:29:38.308Z,5168
2017-11-29T13:30:38.391Z,5640
2017-11-29T13:31:38.313Z,5936
2017-11-29T13:32:38.418Z,6152
2017-11-29T13:33:38.322Z,6272
2017-11-29T13:34:38.399Z,6356
2017-11-29T13:35:38.357Z,6332
2017-11-29T13:36:38.316Z,6272
2017-11-29T13:37:38.641Z,6224
2017-11-29T13:38:38.384Z,6164
2017-11-29T13:39:38.318Z,6176
2017-11-29T13:40:38.313Z,6256
2017-11-29T13:41:38.378Z,6356
2017-11-29T13:42:38.334Z,6484
2017-11-29T13:43:38.265Z,6548
2017-11-29T13:44:38.333Z,6524
2017-11-29T13:45:38.385Z,6456
2017-11-29T13:46:38.355Z,6424
2017-11-29T13:47:38.289Z,6452
2017-11-29T13:48:38.315Z,6536
2017-11-29T13:49:38.388Z,6644
2017-11-29T13:50:38.391Z,6744
2017-11-29T13:51:38.322Z,6848
2017-11-29T13:52:38.394Z,7008
2017-11-29T13:53:38.327Z,7216
2017-11-29T13:54:38.328Z,7440
2017-11-29T13:55:38.396Z,7620